createdAt,value
2023-02-14T00:01:50.208Z,20.52
2023-02-14T00:04:21.185Z,24.73
2023-02-14T00:09:20.490Z,23.27
2023-02-14T00:11:49.108Z,22.35
2023-02-14T00:14:35.724Z,23.23
2023-02-14T00:17:04.649Z,23.00
2023-02-14T00:19:36.082Z,22.85
2023-02-14T00:22:05.881Z,21.38
2023-02-14T00:24:34.320Z,22.88
2023-02-14T00:27:03.238Z,21.52
2023-02-14T00:29:33.180Z,20.67
2023-02-14T00:32:02.536Z,20.50
2023-02-14T00:34:33.073Z,20.60
2023-02-14T00:37:03.558Z,20.15
2023-02-14T00:39:31.996Z,19.30
2023-02-14T00:42:00.831Z,20.23
2023-02-14T00:44:29.181Z,17.80
2023-02-14T00:46:58.145Z,18.25
2023-02-14T00:49:27.495Z,18.50
2023-02-14T00:51:56.038Z,20.25
2023-02-14T00:54:25.975Z,19.52
2023-02-14T00:56:54.658Z,19.55
2023-02-14T00:59:23.079Z,21.35
2023-02-14T01:01:52.049Z,20.80
2023-02-14T01:04:20.457Z,21.35
2023-02-14T01:06:49.378Z,21.42
2023-02-14T01:09:17.663Z,22.80
2023-02-14T01:11:49.017Z,22.48
2023-02-14T01:14:17.486Z,22.08
2023-02-14T01:16:46.253Z,22.13
2023-02-14T01:19:15.027Z,21.05
2023-02-14T01:21:43.769Z,20.02
2023-02-14T01:24:13.764Z,21.52
2023-02-14T01:26:42.429Z,18.75
2023-02-14T01:29:12.420Z,20.05
2023-02-14T01:31:41.280Z,19.05
2023-02-14T01:34:10.131Z,19.17
2023-02-14T01:36:40.344Z,18.85
2023-02-14T01:39:11.103Z,17.92
2023-02-14T01:44:48.189Z,17.50
2023-02-14T01:47:18.839Z,19.15
2023-02-14T01:49:50.548Z,17.60
2023-02-14T01:52:22.711Z,17.10
2023-02-14T01:54:54.150Z,18.48
2023-02-14T01:57:24.448Z,18.70
2023-02-14T01:59:54.759Z,16.83
2023-02-14T02:02:25.309Z,18.40
2023-02-14T02:04:55.828Z,17.17
2023-02-14T02:07:25.981Z,17.05
2023-02-14T02:09:56.824Z,17.48
2023-02-14T02:12:25.493Z,18.48
2023-02-14T02:14:56.195Z,17.33
2023-02-14T02:17:33.048Z,16.98
2023-02-14T02:20:30.173Z,18.23
2023-02-14T02:23:35.799Z,17.23
2023-02-14T02:26:30.045Z,17.85
2023-02-14T02:29:44.410Z,17.50
2023-02-14T02:32:39.052Z,17.55
2023-02-14T02:35:31.662Z,15.95
2023-02-14T02:38:12.798Z,17.42
2023-02-14T02:40:49.242Z,19.05
2023-02-14T02:43:27.576Z,17.52
2023-02-14T02:46:18.091Z,18.10
2023-02-14T02:48:49.621Z,17.52
2023-02-14T02:51:41.610Z,20.23
2023-02-14T02:54:13.891Z,18.17
2023-02-14T02:56:47.367Z,19.00
2023-02-14T02:59:19.871Z,19.33
2023-02-14T03:01:52.339Z,20.17
2023-02-14T03:04:38.758Z,18.38
2023-02-14T03:07:23.188Z,16.67
2023-02-14T03:09:54.101Z,19.25
2023-02-14T03:12:39.796Z,17.38
2023-02-14T03:15:13.607Z,15.80
2023-02-14T03:18:07.253Z,17.88
2023-02-14T03:20:40.306Z,15.93
2023-02-14T03:23:17.456Z,16.75
2023-02-14T03:25:54.994Z,16.15
2023-02-14T03:28:30.292Z,16.75
2023-02-14T03:31:02.224Z,17.15
2023-02-14T03:33:35.096Z,16.83
2023-02-14T03:36:05.525Z,16.58
2023-02-14T03:38:39.922Z,16.45
2023-02-14T03:41:10.769Z,16.77
2023-02-14T03:43:43.665Z,16.30
2023-02-14T03:46:13.482Z,16.42
2023-02-14T03:48:43.428Z,16.48
2023-02-14T03:51:13.983Z,16.63
2023-02-14T03:53:47.068Z,16.67
2023-02-14T03:56:18.917Z,16.27
2023-02-14T03:58:50.465Z,15.23
2023-02-14T04:01:23.145Z,15.75
2023-02-14T04:03:54.309Z,15.07
2023-02-14T04:06:22.838Z,15.80
2023-02-14T04:08:53.136Z,17.75
2023-02-14T04:11:24.093Z,15.15
2023-02-14T04:16:21.572Z,14.23
2023-02-14T04:19:06.697Z,14.02
2023-02-14T04:21:35.294Z,14.20
2023-02-14T04:24:06.045Z,13.50
2023-02-14T04:26:34.490Z,13.80
2023-02-14T04:29:03.070Z,13.35
2023-02-14T04:31:31.504Z,13.05
2023-02-14T04:34:00.485Z,16.33
2023-02-14T04:36:28.766Z,12.77
2023-02-14T04:38:57.672Z,13.50
2023-02-14T04:41:27.615Z,14.75
2023-02-14T04:43:56.171Z,11.80
2023-02-14T04:46:24.664Z,12.85
2023-02-14T04:48:53.214Z,13.35
2023-02-14T04:51:21.669Z,14.52
2023-02-14T04:53:50.394Z,13.88
2023-02-14T04:56:20.057Z,13.02
2023-02-14T04:58:49.924Z,13.15
2023-02-14T05:01:18.811Z,13.45
2023-02-14T05:03:47.912Z,12.68
2023-02-14T05:06:16.300Z,15.00
2023-02-14T05:08:45.015Z,12.98
2023-02-14T05:11:13.278Z,11.88
2023-02-14T05:13:42.114Z,13.30
2023-02-14T05:16:12.205Z,12.88
2023-02-14T05:18:40.999Z,12.15
2023-02-14T05:21:09.459Z,15.68
2023-02-14T05:23:38.323Z,12.23
2023-02-14T05:26:06.940Z,12.23
2023-02-14T05:28:37.044Z,12.35
2023-02-14T05:31:05.719Z,13.18
2023-02-14T05:33:35.970Z,13.35
2023-02-14T05:36:04.577Z,13.00
2023-02-14T05:38:35.161Z,12.80
2023-02-14T05:41:03.721Z,14.10
2023-02-14T05:43:32.350Z,13.73
2023-02-14T05:46:00.995Z,15.02
2023-02-14T05:48:29.708Z,15.20
2023-02-14T05:50:59.748Z,15.50
2023-02-14T05:53:28.735Z,18.00
2023-02-14T05:55:57.127Z,18.23
2023-02-14T05:58:27.009Z,16.63
2023-02-14T06:00:55.273Z,15.65
2023-02-14T06:03:23.980Z,17.17
2023-02-14T06:05:53.676Z,15.13
2023-02-14T06:08:24.094Z,15.43
2023-02-14T06:10:52.417Z,15.93
2023-02-14T06:13:22.423Z,16.80
2023-02-14T06:15:50.840Z,17.63
2023-02-14T06:18:19.414Z,16.60
2023-02-14T06:20:47.933Z,18.80
2023-02-14T06:23:16.487Z,17.08
2023-02-14T06:25:46.185Z,18.20
2023-02-14T06:28:15.013Z,20.70
2023-02-14T06:30:43.757Z,22.50
2023-02-14T06:33:12.481Z,21.85
2023-02-14T06:35:41.115Z,26.13
2023-02-14T06:38:09.698Z,27.20
2023-02-14T06:40:38.317Z,27.63
2023-02-14T06:43:08.573Z,24.48
2023-02-14T06:45:36.961Z,34.55
2023-02-14T06:48:06.306Z,32.80
2023-02-14T06:50:34.529Z,32.95
2023-02-14T06:53:06.988Z,30.00
2023-02-14T06:55:35.284Z,27.23
2023-02-14T06:58:04.138Z,24.10
2023-02-14T07:00:34.064Z,33.72
2023-02-14T07:03:03.237Z,23.45
2023-02-14T07:05:32.010Z,21.63
2023-02-14T07:08:00.743Z,27.95
2023-02-14T07:10:29.293Z,29.23
2023-02-14T07:12:57.977Z,23.25
2023-02-14T07:15:26.587Z,26.92
2023-02-14T07:17:56.618Z,22.25
2023-02-14T07:20:27.346Z,20.10
2023-02-14T07:22:56.279Z,19.27
2023-02-14T07:25:24.726Z,21.60
2023-02-14T07:27:53.578Z,19.17
2023-02-14T07:30:21.929Z,19.27
2023-02-14T07:32:50.716Z,19.05
2023-02-14T07:35:21.156Z,18.58
2023-02-14T07:37:51.752Z,26.85
2023-02-14T07:40:20.726Z,38.33
2023-02-14T07:42:55.316Z,23.58
2023-02-14T07:45:24.684Z,21.23
2023-02-14T07:47:54.883Z,20.33
2023-02-14T07:50:25.000Z,18.98
2023-02-14T07:52:53.743Z,20.17
2023-02-14T07:55:23.031Z,23.70
2023-02-14T07:57:51.783Z,20.38
2023-02-14T08:00:20.797Z,20.27
2023-02-14T08:02:49.602Z,22.33
2023-02-14T08:05:19.243Z,40.58
2023-02-14T08:07:50.580Z,26.02
2023-02-14T08:10:19.431Z,23.63
2023-02-14T08:13:00.267Z,19.00
2023-02-14T08:15:47.102Z,16.00
2023-02-14T08:18:17.925Z,16.23
2023-02-14T08:20:46.284Z,17.83
2023-02-14T08:23:16.713Z,18.55
2023-02-14T08:25:45.010Z,17.48
2023-02-14T08:28:15.101Z,18.88
2023-02-14T08:30:45.237Z,17.13
2023-02-14T08:33:13.788Z,17.17
2023-02-14T08:35:42.022Z,16.42
2023-02-14T08:38:10.754Z,19.73
2023-02-14T08:40:40.387Z,17.00
2023-02-14T08:43:09.308Z,21.10
2023-02-14T08:45:37.559Z,19.73
2023-02-14T08:48:08.787Z,18.02
2023-02-14T08:50:38.099Z,17.77
2023-02-14T08:53:08.804Z,22.30
2023-02-14T08:55:37.604Z,20.90
2023-02-14T08:58:08.530Z,26.67
2023-02-14T09:00:37.123Z,21.67
2023-02-14T09:03:06.091Z,22.95
2023-02-14T09:05:35.326Z,29.05
2023-02-14T09:08:04.350Z,21.42
2023-02-14T09:10:33.043Z,18.77
2023-02-14T09:13:02.381Z,18.20
2023-02-14T09:15:32.051Z,16.70
2023-02-14T09:18:00.719Z,14.82
2023-02-14T09:20:29.174Z,15.38
2023-02-14T09:22:57.948Z,14.80
2023-02-14T09:25:26.819Z,16.33
2023-02-14T09:27:56.023Z,16.00
2023-02-14T09:30:25.847Z,16.77
2023-02-14T09:32:56.129Z,16.80
2023-02-14T09:35:24.409Z,15.60
2023-02-14T09:38:10.972Z,18.67
2023-02-14T09:40:39.410Z,16.80
2023-02-14T09:43:13.469Z,19.60
2023-02-14T09:45:42.015Z,14.48
2023-02-14T09:48:20.201Z,17.02
2023-02-14T09:50:51.366Z,16.92
2023-02-14T09:55:55.492Z,21.27
2023-02-14T09:58:28.697Z,16.60
2023-02-14T10:00:59.883Z,17.45
2023-02-14T10:03:49.028Z,17.05
2023-02-14T10:06:27.916Z,20.83
2023-02-14T10:09:04.855Z,19.73
2023-02-14T10:11:33.304Z,19.67
2023-02-14T10:14:06.266Z,16.17
2023-02-14T10:16:40.344Z,16.30
2023-02-14T10:19:19.860Z,16.67
2023-02-14T10:21:53.016Z,17.40
2023-02-14T10:24:26.881Z,17.45
2023-02-14T10:26:58.929Z,14.52
2023-02-14T10:29:27.802Z,18.83
2023-02-14T10:31:59.324Z,22.40
2023-02-14T10:34:35.933Z,22.05
2023-02-14T10:37:22.299Z,16.80
2023-02-14T10:40:06.071Z,17.13
2023-02-14T10:42:40.088Z,17.27
2023-02-14T10:45:17.768Z,17.42
2023-02-14T10:47:51.743Z,18.48
2023-02-14T10:50:27.329Z,20.00
2023-02-14T10:53:03.885Z,15.15
2023-02-14T10:55:41.614Z,12.27
2023-02-14T10:58:13.721Z,10.50
2023-02-14T11:00:48.546Z,8.95
2023-02-14T11:03:17.112Z,12.88
2023-02-14T11:05:49.147Z,9.85
2023-02-14T11:08:27.059Z,10.40
2023-02-14T11:10:57.408Z,11.35
2023-02-14T11:13:32.189Z,11.05
2023-02-14T11:16:03.222Z,10.90
2023-02-14T11:18:37.010Z,10.25
2023-02-14T11:21:12.482Z,9.93
2023-02-14T11:23:42.591Z,12.45
2023-02-14T11:26:16.725Z,10.63
2023-02-14T11:28:50.583Z,14.38
2023-02-14T11:31:30.808Z,14.45
2023-02-14T11:34:00.172Z,19.92
2023-02-14T11:36:31.348Z,17.35
2023-02-14T11:39:05.168Z,18.27
2023-02-14T11:41:49.057Z,13.43
2023-02-14T11:44:22.910Z,14.73
2023-02-14T11:46:53.804Z,11.50
2023-02-14T11:49:29.378Z,9.23
2023-02-14T11:52:00.696Z,11.32
2023-02-14T11:54:36.822Z,10.43
2023-02-14T11:57:08.240Z,9.00
2023-02-14T11:59:39.773Z,9.05
2023-02-14T12:02:20.090Z,11.55
2023-02-14T12:04:50.138Z,11.82
2023-02-14T12:07:22.652Z,7.85
2023-02-14T12:10:07.842Z,13.15
2023-02-14T12:12:37.711Z,13.90
2023-02-14T12:15:25.181Z,13.27
2023-02-14T12:18:00.897Z,20.52
2023-02-14T12:20:38.383Z,13.55
2023-02-14T12:23:12.475Z,15.05
2023-02-14T12:25:44.123Z,13.73
2023-02-14T12:28:15.993Z,9.23
2023-02-14T12:30:44.375Z,16.50
2023-02-14T12:33:19.234Z,19.65
2023-02-14T12:35:55.963Z,14.15
2023-02-14T12:38:34.595Z,7.68
2023-02-14T12:41:10.233Z,8.77
2023-02-14T12:43:48.103Z,7.97
2023-02-14T12:46:29.514Z,11.30
2023-02-14T12:49:10.044Z,15.38
2023-02-14T12:51:42.436Z,15.70
2023-02-14T12:54:33.821Z,13.82
2023-02-14T12:57:09.420Z,13.07
2023-02-14T12:59:42.327Z,12.55
2023-02-14T13:02:37.197Z,13.25
2023-02-14T13:05:16.163Z,13.95
2023-02-14T13:08:01.444Z,14.68
2023-02-14T13:10:46.501Z,13.30
2023-02-14T13:13:22.561Z,13.48
2023-02-14T13:15:56.702Z,11.70
2023-02-14T13:18:35.456Z,11.23
2023-02-14T13:21:07.876Z,11.63
2023-02-14T13:23:39.723Z,8.80
2023-02-14T13:26:13.878Z,9.05
2023-02-14T13:28:50.350Z,9.32
2023-02-14T13:31:19.874Z,13.35
2023-02-14T13:33:52.503Z,11.88
2023-02-14T13:36:22.668Z,8.95
2023-02-14T13:38:52.738Z,9.07
2023-02-14T13:41:24.061Z,9.57
2023-02-14T13:43:56.230Z,10.55
2023-02-14T13:46:47.450Z,10.05
2023-02-14T13:49:25.880Z,11.32
2023-02-14T13:51:55.866Z,11.25
2023-02-14T13:54:41.140Z,11.40
2023-02-14T13:57:31.696Z,10.93
2023-02-14T14:00:39.716Z,12.10
2023-02-14T14:03:09.719Z,17.40
2023-02-14T14:06:03.678Z,19.58
2023-02-14T14:08:43.956Z,19.48
2023-02-14T14:11:15.413Z,17.27
2023-02-14T14:13:59.800Z,12.65
2023-02-14T14:16:31.472Z,11.23
2023-02-14T14:19:02.376Z,12.68
2023-02-14T14:21:32.303Z,19.70
2023-02-14T14:24:16.937Z,22.92
2023-02-14T14:26:46.910Z,23.05
2023-02-14T14:29:21.514Z,21.50
2023-02-14T14:31:55.964Z,14.18
2023-02-14T14:34:27.098Z,12.77
2023-02-14T14:37:03.340Z,12.20
2023-02-14T14:39:34.667Z,13.30
2023-02-14T14:42:11.115Z,14.40
2023-02-14T14:44:47.173Z,12.07
2023-02-14T14:47:19.484Z,13.13
2023-02-14T14:49:48.546Z,11.63
2023-02-14T14:52:28.726Z,11.88
2023-02-14T14:54:57.888Z,14.00
2023-02-14T14:57:26.700Z,12.75
2023-02-14T15:00:27.331Z,13.63
2023-02-14T15:03:15.917Z,13.38
2023-02-14T15:05:48.669Z,17.25
2023-02-14T15:08:24.555Z,15.55
2023-02-14T15:10:56.010Z,12.50
2023-02-14T15:13:49.807Z,13.93
2023-02-14T15:16:22.484Z,14.25
2023-02-14T15:18:51.981Z,16.88
2023-02-14T15:21:21.064Z,15.95
2023-02-14T15:23:50.499Z,20.40
2023-02-14T15:26:21.576Z,18.35
2023-02-14T15:28:56.598Z,17.13
2023-02-14T15:31:29.929Z,18.98
2023-02-14T15:34:00.276Z,19.50
2023-02-14T15:36:29.052Z,20.17
2023-02-14T15:38:58.289Z,21.20
2023-02-14T15:41:27.864Z,23.85
2023-02-14T15:43:57.731Z,21.85
2023-02-14T15:46:35.334Z,18.70
2023-02-14T15:49:10.786Z,16.95
2023-02-14T15:51:39.603Z,16.45
2023-02-14T15:54:09.306Z,14.57
2023-02-14T15:56:43.225Z,12.70
2023-02-14T15:59:18.714Z,12.10
2023-02-14T16:01:53.509Z,12.02
2023-02-14T16:04:26.316Z,13.18
2023-02-14T16:07:09.006Z,14.25
2023-02-14T16:09:37.862Z,15.82
2023-02-14T16:12:30.177Z,17.67
2023-02-14T16:15:18.014Z,17.27
2023-02-14T16:17:48.241Z,15.82
2023-02-14T16:20:30.270Z,16.55
2023-02-14T16:23:32.848Z,17.33
2023-02-14T16:26:01.135Z,19.85
2023-02-14T16:28:30.730Z,18.75
2023-02-14T16:31:00.661Z,18.15
2023-02-14T16:33:32.340Z,18.47
2023-02-14T16:36:06.594Z,18.88
2023-02-14T16:38:38.092Z,17.17
2023-02-14T16:41:26.187Z,20.38
2023-02-14T16:43:57.381Z,19.58
2023-02-14T16:46:26.995Z,16.90
2023-02-14T16:48:57.432Z,19.75
2023-02-14T16:51:28.478Z,16.88
2023-02-14T16:53:58.693Z,13.65
2023-02-14T16:56:30.199Z,15.57
2023-02-14T16:58:59.082Z,23.40
2023-02-14T17:01:27.534Z,17.42
2023-02-14T17:03:57.686Z,12.57
2023-02-14T17:06:28.722Z,10.90
2023-02-14T17:08:58.167Z,14.35
2023-02-14T17:11:27.928Z,13.85
2023-02-14T17:13:57.143Z,13.00
2023-02-14T17:16:25.827Z,10.20
2023-02-14T17:18:54.528Z,13.15
2023-02-14T17:21:25.123Z,12.00
2023-02-14T17:23:53.813Z,10.95
2023-02-14T17:26:22.865Z,19.65
2023-02-14T17:28:51.484Z,11.60
2023-02-14T17:31:20.690Z,15.27
2023-02-14T17:33:49.727Z,14.18
2023-02-14T17:36:18.142Z,11.38
2023-02-14T17:38:48.194Z,8.27
2023-02-14T17:41:18.741Z,8.70
2023-02-14T17:43:47.854Z,8.30
2023-02-14T17:46:18.738Z,12.77
2023-02-14T17:51:17.384Z,9.02
2023-02-14T17:53:47.488Z,9.52
2023-02-14T17:56:17.993Z,11.52
2023-02-14T17:58:48.020Z,10.10
2023-02-14T18:01:18.249Z,11.38
2023-02-14T18:03:47.304Z,11.95
2023-02-14T18:06:15.995Z,12.05
2023-02-14T18:08:49.482Z,11.65
2023-02-14T18:11:20.130Z,12.70
2023-02-14T18:13:49.827Z,11.63
2023-02-14T18:16:19.762Z,11.07
2023-02-14T18:18:48.962Z,11.40
2023-02-14T18:21:19.482Z,11.98
2023-02-14T18:23:49.935Z,13.73
2023-02-14T18:26:19.382Z,13.75
2023-02-14T18:28:49.015Z,12.05
2023-02-14T18:31:18.767Z,15.32
2023-02-14T18:33:48.497Z,12.80
2023-02-14T18:36:18.598Z,14.45
2023-02-14T18:38:49.697Z,12.80
2023-02-14T18:41:19.963Z,13.45
2023-02-14T18:43:49.436Z,12.95
2023-02-14T18:46:19.499Z,12.63
2023-02-14T18:48:48.540Z,13.52
2023-02-14T18:51:18.868Z,14.93
2023-02-14T18:53:52.305Z,12.40
2023-02-14T18:56:23.794Z,13.93
2023-02-14T18:58:58.003Z,16.13
2023-02-14T19:01:29.338Z,14.07
2023-02-14T19:03:59.753Z,13.73
2023-02-14T19:06:29.491Z,23.88
2023-02-14T19:09:00.263Z,26.52
2023-02-14T19:11:31.684Z,14.13
2023-02-14T19:14:02.319Z,11.55
2023-02-14T19:16:33.509Z,12.80
2023-02-14T19:19:03.004Z,11.95
2023-02-14T19:21:33.730Z,12.35
2023-02-14T19:24:07.108Z,12.93
2023-02-14T19:26:40.765Z,17.58
2023-02-14T19:29:11.259Z,17.73
2023-02-14T19:31:42.121Z,16.10
2023-02-14T19:36:43.871Z,13.48
2023-02-14T19:39:15.058Z,12.77
2023-02-14T19:41:43.810Z,14.00
2023-02-14T19:44:14.863Z,15.05
2023-02-14T19:46:44.092Z,16.65
2023-02-14T19:49:15.232Z,21.27
2023-02-14T19:51:43.677Z,26.02
2023-02-14T19:54:14.262Z,21.33
2023-02-14T19:56:45.159Z,22.60
2023-02-14T19:59:19.799Z,22.73
2023-02-14T20:01:49.513Z,52.72
2023-02-14T20:04:20.414Z,63.03
2023-02-14T20:06:49.053Z,68.05
2023-02-14T20:09:21.898Z,51.28
2023-02-14T20:11:51.662Z,54.53
2023-02-14T20:14:21.910Z,61.28
2023-02-14T20:16:50.689Z,26.92
2023-02-14T20:19:21.031Z,13.80
2023-02-14T20:21:50.666Z,10.80
2023-02-14T20:24:22.426Z,11.85
2023-02-14T20:26:53.133Z,20.65
2023-02-14T20:29:23.573Z,27.67
2023-02-14T20:31:53.452Z,26.25
2023-02-14T20:34:22.560Z,26.42
2023-02-14T20:36:56.127Z,28.58
2023-02-14T20:39:30.250Z,21.42
2023-02-14T20:41:58.781Z,27.23
2023-02-14T20:44:27.384Z,29.33
2023-02-14T20:46:56.898Z,30.10
2023-02-14T20:49:26.838Z,26.30
2023-02-14T20:51:56.149Z,25.38
2023-02-14T20:54:27.394Z,23.73
2023-02-14T20:56:55.947Z,15.98
2023-02-14T20:59:27.328Z,11.77
2023-02-14T21:01:56.112Z,10.35
2023-02-14T21:04:25.042Z,8.60
2023-02-14T21:06:53.609Z,8.30
2023-02-14T21:09:22.220Z,11.32
2023-02-14T21:11:53.973Z,16.38
2023-02-14T21:14:22.601Z,18.42
2023-02-14T21:16:50.881Z,12.40
2023-02-14T21:19:19.862Z,9.02
2023-02-14T21:21:48.200Z,10.25
2023-02-14T21:24:17.458Z,11.10
2023-02-14T21:26:46.414Z,8.70
2023-02-14T21:29:16.256Z,10.40
2023-02-14T21:31:44.953Z,9.70
2023-02-14T21:34:15.692Z,11.73
2023-02-14T21:36:44.050Z,9.27
2023-02-14T21:39:12.600Z,8.00
2023-02-14T21:41:42.163Z,9.50
2023-02-14T21:44:31.496Z,9.23
2023-02-14T21:47:01.107Z,14.35
2023-02-14T21:49:46.856Z,10.55
2023-02-14T21:52:15.089Z,11.75
2023-02-14T21:54:43.625Z,8.50
2023-02-14T21:57:11.985Z,9.05
2023-02-14T21:59:41.847Z,10.70
2023-02-14T22:02:12.416Z,9.30
2023-02-14T22:04:43.234Z,9.68
2023-02-14T22:07:11.474Z,9.87
2023-02-14T22:09:40.037Z,10.20
2023-02-14T22:12:08.696Z,9.90
2023-02-14T22:14:37.254Z,10.70
2023-02-14T22:17:05.716Z,9.52
2023-02-14T22:19:36.906Z,10.45
2023-02-14T22:22:05.532Z,11.18
2023-02-14T22:24:34.127Z,13.05
2023-02-14T22:27:02.660Z,12.80
2023-02-14T22:29:31.143Z,13.38
2023-02-14T22:31:59.834Z,11.00
2023-02-14T22:34:28.392Z,11.80
2023-02-14T22:36:58.043Z,20.23
2023-02-14T22:39:26.827Z,20.58
2023-02-14T22:41:55.454Z,18.17
2023-02-14T22:44:23.910Z,19.45
2023-02-14T22:46:52.538Z,16.30
2023-02-14T22:49:21.013Z,16.65
2023-02-14T22:51:49.302Z,13.90
2023-02-14T22:54:19.374Z,14.02
2023-02-14T22:56:48.985Z,14.77
2023-02-14T22:59:19.851Z,15.40
2023-02-14T23:01:48.811Z,14.80
2023-02-14T23:04:18.577Z,14.93
2023-02-14T23:06:47.082Z,16.45
2023-02-14T23:09:16.525Z,17.58
2023-02-14T23:11:46.886Z,16.50
2023-02-14T23:14:34.704Z,16.27
2023-02-14T23:17:20.722Z,18.58
2023-02-14T23:20:06.672Z,14.90
2023-02-14T23:22:37.174Z,18.70
2023-02-14T23:25:08.884Z,22.80
2023-02-14T23:27:40.375Z,20.65
2023-02-14T23:30:11.120Z,23.92
2023-02-14T23:32:40.012Z,21.57
2023-02-14T23:35:08.852Z,26.52
2023-02-14T23:37:37.086Z,21.88
2023-02-14T23:40:07.043Z,21.65
2023-02-14T23:42:35.489Z,23.30
2023-02-14T23:45:19.733Z,18.27
2023-02-14T23:47:48.539Z,19.15
2023-02-14T23:50:17.358Z,19.58
2023-02-14T23:52:45.688Z,18.65
2023-02-14T23:55:14.383Z,22.15
2023-02-14T23:57:42.787Z,17.27
